sensor_id;sensor_type;location;lat;lon;timestamp;temperature;humidity
21666;DHT22;10994;45.486;9.190;2022-11-14T00:02:01;13.90;99.90
21666;DHT22;10994;45.486;9.190;2022-11-14T00:04:47;13.90;99.90
21666;DHT22;10994;45.486;9.190;2022-11-14T00:07:32;13.60;99.90
21666;DHT22;10994;45.486;9.190;2022-11-14T00:10:16;13.70;99.90
21666;DHT22;10994;45.486;9.190;2022-11-14T00:13:01;13.80;99.90
21666;DHT22;10994;45.486;9.190;2022-11-14T00:15:50;13.80;99.90
21666;DHT22;10994;45.486;9.190;2022-11-14T00:18:37;13.80;99.90
21666;DHT22;10994;45.486;9.190;2022-11-14T00:21:21;13.60;99.90
21666;DHT22;10994;45.486;9.190;2022-11-14T00:24:05;13.40;99.90
21666;DHT22;10994;45.486;9.190;2022-11-14T00:26:49;13.50;99.90
21666;DHT22;10994;45.486;9.190;2022-11-14T00:29:33;13.60;99.90
21666;DHT22;10994;45.486;9.190;2022-11-14T00:32:18;13.50;99.90
21666;DHT22;10994;45.486;9.190;2022-11-14T00:35:03;13.60;99.90
21666;DHT22;10994;45.486;9.190;2022-11-14T00:37:47;13.60;99.90
21666;DHT22;10994;45.486;9.190;2022-11-14T00:40:32;13.60;99.90
21666;DHT22;10994;45.486;9.190;2022-11-14T00:43:17;13.60;99.90
21666;DHT22;10994;45.486;9.190;2022-11-14T00:46:01;13.60;99.90
21666;DHT22;10994;45.486;9.190;2022-11-14T00:48:45;13.50;99.90
21666;DHT22;10994;45.486;9.190;2022-11-14T00:51:29;13.40;99.90
21666;DHT22;10994;45.486;9.190;2022-11-14T00:54:14;13.60;99.90
21666;DHT22;10994;45.486;9.190;2022-11-14T00:56:57;13.20;99.90
21666;DHT22;10994;45.486;9.190;2022-11-14T00:59:41;13.30;99.90
21666;DHT22;10994;45.486;9.190;2022-11-14T01:02:25;13.30;99.90
21666;DHT22;10994;45.486;9.190;2022-11-14T01:05:10;13.40;99.90
21666;DHT22;10994;45.486;9.190;2022-11-14T01:07:54;13.50;99.90
21666;DHT22;10994;45.486;9.190;2022-11-14T01:10:43;13.60;99.90
21666;DHT22;10994;45.486;9.190;2022-11-14T01:13:31;13.50;99.90
21666;DHT22;10994;45.486;9.190;2022-11-14T01:16:16;13.50;99.90
21666;DHT22;10994;45.486;9.190;2022-11-14T01:19:01;13.50;99.90
21666;DHT22;10994;45.486;9.190;2022-11-14T01:21:45;13.50;99.90
21666;DHT22;10994;45.486;9.190;2022-11-14T01:24:31;13.50;99.90
21666;DHT22;10994;45.486;9.190;2022-11-14T01:27:16;13.50;99.90
21666;DHT22;10994;45.486;9.190;2022-11-14T01:30:00;13.50;99.90
21666;DHT22;10994;45.486;9.190;2022-11-14T01:32:44;13.50;99.90
21666;DHT22;10994;45.486;9.190;2022-11-14T01:35:29;13.60;99.90
21666;DHT22;10994;45.486;9.190;2022-11-14T01:38:14;13.60;99.90
21666;DHT22;10994;45.486;9.190;2022-11-14T01:40:58;13.50;99.90
21666;DHT22;10994;45.486;9.190;2022-11-14T01:43:42;13.50;99.90
21666;DHT22;10994;45.486;9.190;2022-11-14T01:46:36;13.60;99.90
21666;DHT22;10994;45.486;9.190;2022-11-14T01:49:25;13.60;99.90
21666;DHT22;10994;45.486;9.190;2022-11-14T01:52:12;13.50;99.90
21666;DHT22;10994;45.486;9.190;2022-11-14T01:55:00;13.50;99.90
21666;DHT22;10994;45.486;9.190;2022-11-14T01:57:47;13.50;99.90
21666;DHT22;10994;45.486;9.190;2022-11-14T02:00:32;13.50;99.90
21666;DHT22;10994;45.486;9.190;2022-11-14T02:03:17;13.50;99.90
21666;DHT22;10994;45.486;9.190;2022-11-14T02:06:03;13.50;99.90
21666;DHT22;10994;45.486;9.190;2022-11-14T02:08:50;13.50;99.90
21666;DHT22;10994;45.486;9.190;2022-11-14T02:11:37;13.50;99.90
21666;DHT22;10994;45.486;9.190;2022-11-14T02:14:22;13.50;99.90
21666;DHT22;10994;45.486;9.190;2022-11-14T02:17:07;13.10;99.90
21666;DHT22;10994;45.486;9.190;2022-11-14T02:19:54;13.20;99.90
21666;DHT22;10994;45.486;9.190;2022-11-14T02:22:41;13.30;99.90
21666;DHT22;10994;45.486;9.190;2022-11-14T02:25:25;13.20;99.90
21666;DHT22;10994;45.486;9.190;2022-11-14T02:28:10;13.00;99.90
21666;DHT22;10994;45.486;9.190;2022-11-14T02:30:54;13.00;99.90
21666;DHT22;10994;45.486;9.190;2022-11-14T02:33:39;13.10;99.90
21666;DHT22;10994;45.486;9.190;2022-11-14T02:36:24;13.10;99.90
21666;DHT22;10994;45.486;9.190;2022-11-14T02:39:08;13.10;99.90
21666;DHT22;10994;45.486;9.190;2022-11-14T02:41:53;13.10;99.90
21666;DHT22;10994;45.486;9.190;2022-11-14T02:44:37;13.10;99.90
21666;DHT22;10994;45.486;9.190;2022-11-14T02:47:21;13.10;99.90
21666;DHT22;10994;45.486;9.190;2022-11-14T02:50:08;13.10;99.90
21666;DHT22;10994;45.486;9.190;2022-11-14T02:52:52;13.00;99.90
21666;DHT22;10994;45.486;9.190;2022-11-14T02:55:37;13.00;99.90
21666;DHT22;10994;45.486;9.190;2022-11-14T02:58:22;13.10;99.90
21666;DHT22;10994;45.486;9.190;2022-11-14T03:01:06;13.00;99.90
21666;DHT22;10994;45.486;9.190;2022-11-14T03:03:50;13.00;99.90
21666;DHT22;10994;45.486;9.190;2022-11-14T03:06:35;13.00;99.90
21666;DHT22;10994;45.486;9.190;2022-11-14T03:09:20;13.10;99.90
21666;DHT22;10994;45.486;9.190;2022-11-14T03:12:04;13.10;99.90
21666;DHT22;10994;45.486;9.190;2022-11-14T03:14:48;13.00;99.90
21666;DHT22;10994;45.486;9.190;2022-11-14T03:17:33;13.00;99.90
21666;DHT22;10994;45.486;9.190;2022-11-14T03:20:18;13.10;99.90
21666;DHT22;10994;45.486;9.190;2022-11-14T03:23:03;13.10;99.90
21666;DHT22;10994;45.486;9.190;2022-11-14T03:25:47;13.10;99.90
21666;DHT22;10994;45.486;9.190;2022-11-14T03:28:31;13.20;99.90
21666;DHT22;10994;45.486;9.190;2022-11-14T03:31:15;13.20;99.90
21666;DHT22;10994;45.486;9.190;2022-11-14T03:33:59;13.20;99.90
21666;DHT22;10994;45.486;9.190;2022-11-14T03:36:43;13.10;99.90
21666;DHT22;10994;45.486;9.190;2022-11-14T03:39:28;13.10;99.90
21666;DHT22;10994;45.486;9.190;2022-11-14T03:42:12;13.10;99.90
21666;DHT22;10994;45.486;9.190;2022-11-14T03:44:56;13.10;99.90
21666;DHT22;10994;45.486;9.190;2022-11-14T03:47:40;13.00;99.90
21666;DHT22;10994;45.486;9.190;2022-11-14T03:50:24;12.90;99.90
21666;DHT22;10994;45.486;9.190;2022-11-14T03:53:09;12.70;99.90
21666;DHT22;10994;45.486;9.190;2022-11-14T03:55:54;12.50;99.90
21666;DHT22;10994;45.486;9.190;2022-11-14T03:58:38;12.50;99.90
21666;DHT22;10994;45.486;9.190;2022-11-14T04:01:23;12.40;99.90
21666;DHT22;10994;45.486;9.190;2022-11-14T04:04:09;12.10;99.90
21666;DHT22;10994;45.486;9.190;2022-11-14T04:06:54;11.80;99.90
21666;DHT22;10994;45.486;9.190;2022-11-14T04:09:38;11.80;99.90
21666;DHT22;10994;45.486;9.190;2022-11-14T04:12:22;12.00;99.90
21666;DHT22;10994;45.486;9.190;2022-11-14T04:15:06;12.10;99.90
21666;DHT22;10994;45.486;9.190;2022-11-14T04:17:51;12.30;99.90
21666;DHT22;10994;45.486;9.190;2022-11-14T04:20:35;12.40;99.90
21666;DHT22;10994;45.486;9.190;2022-11-14T04:23:19;12.40;99.90
21666;DHT22;10994;45.486;9.190;2022-11-14T04:26:03;12.20;99.90
21666;DHT22;10994;45.486;9.190;2022-11-14T04:28:47;12.20;99.90
21666;DHT22;10994;45.486;9.190;2022-11-14T04:31:32;12.40;99.90
21666;DHT22;10994;45.486;9.190;2022-11-14T04:34:16;12.40;99.90
21666;DHT22;10994;45.486;9.190;2022-11-14T04:37:00;12.20;99.90
21666;DHT22;10994;45.486;9.190;2022-11-14T04:39:44;12.20;99.90
21666;DHT22;10994;45.486;9.190;2022-11-14T04:42:28;12.10;99.90
21666;DHT22;10994;45.486;9.190;2022-11-14T04:45:12;12.00;99.90
21666;DHT22;10994;45.486;9.190;2022-11-14T04:47:56;12.10;99.90
21666;DHT22;10994;45.486;9.190;2022-11-14T04:50:40;12.20;99.90
21666;DHT22;10994;45.486;9.190;2022-11-14T04:53:24;12.30;99.90
21666;DHT22;10994;45.486;9.190;2022-11-14T04:56:09;12.40;99.90
21666;DHT22;10994;45.486;9.190;2022-11-14T04:58:53;12.40;99.90
21666;DHT22;10994;45.486;9.190;2022-11-14T05:01:37;12.50;99.90
21666;DHT22;10994;45.486;9.190;2022-11-14T05:04:21;12.40;99.90
21666;DHT22;10994;45.486;9.190;2022-11-14T05:07:05;12.40;99.90
21666;DHT22;10994;45.486;9.190;2022-11-14T05:09:50;12.20;99.90
21666;DHT22;10994;45.486;9.190;2022-11-14T05:12:34;12.10;99.90
21666;DHT22;10994;45.486;9.190;2022-11-14T05:15:18;12.20;99.90
21666;DHT22;10994;45.486;9.190;2022-11-14T05:18:03;12.30;99.90
21666;DHT22;10994;45.486;9.190;2022-11-14T05:20:47;12.40;99.90
21666;DHT22;10994;45.486;9.190;2022-11-14T05:23:31;12.50;99.90
21666;DHT22;10994;45.486;9.190;2022-11-14T05:26:17;12.50;99.90
21666;DHT22;10994;45.486;9.190;2022-11-14T05:29:02;12.50;99.90
21666;DHT22;10994;45.486;9.190;2022-11-14T05:31:46;12.60;99.90
21666;DHT22;10994;45.486;9.190;2022-11-14T05:34:30;12.60;99.90
21666;DHT22;10994;45.486;9.190;2022-11-14T05:37:15;12.70;99.90
21666;DHT22;10994;45.486;9.190;2022-11-14T05:39:59;12.70;99.90
21666;DHT22;10994;45.486;9.190;2022-11-14T05:42:43;12.50;99.90
21666;DHT22;10994;45.486;9.190;2022-11-14T05:45:27;12.50;99.90
21666;DHT22;10994;45.486;9.190;2022-11-14T05:48:11;12.50;99.90
21666;DHT22;10994;45.486;9.190;2022-11-14T05:50:56;12.60;99.90
21666;DHT22;10994;45.486;9.190;2022-11-14T05:53:41;12.60;99.90
21666;DHT22;10994;45.486;9.190;2022-11-14T05:56:26;12.70;99.90
21666;DHT22;10994;45.486;9.190;2022-11-14T05:59:10;12.60;99.90
21666;DHT22;10994;45.486;9.190;2022-11-14T06:01:54;12.70;99.90
21666;DHT22;10994;45.486;9.190;2022-11-14T06:04:38;12.70;99.90
21666;DHT22;10994;45.486;9.190;2022-11-14T06:07:22;12.70;99.90
21666;DHT22;10994;45.486;9.190;2022-11-14T06:10:07;12.70;99.90
21666;DHT22;10994;45.486;9.190;2022-11-14T06:12:51;12.80;99.90
21666;DHT22;10994;45.486;9.190;2022-11-14T06:15:35;12.70;99.90
21666;DHT22;10994;45.486;9.190;2022-11-14T06:18:19;12.70;99.90
21666;DHT22;10994;45.486;9.190;2022-11-14T06:21:06;12.70;99.90
21666;DHT22;10994;45.486;9.190;2022-11-14T06:23:51;12.70;99.90
21666;DHT22;10994;45.486;9.190;2022-11-14T06:26:36;12.80;99.90
21666;DHT22;10994;45.486;9.190;2022-11-14T06:29:20;12.80;99.90
21666;DHT22;10994;45.486;9.190;2022-11-14T06:32:04;12.70;99.90
21666;DHT22;10994;45.486;9.190;2022-11-14T06:34:48;12.70;99.90
21666;DHT22;10994;45.486;9.190;2022-11-14T06:37:35;12.70;99.90
21666;DHT22;10994;45.486;9.190;2022-11-14T06:40:20;12.70;99.90
21666;DHT22;10994;45.486;9.190;2022-11-14T06:43:04;12.70;99.90
21666;DHT22;10994;45.486;9.190;2022-11-14T06:45:48;12.60;99.90
21666;DHT22;10994;45.486;9.190;2022-11-14T06:48:32;12.50;99.90
21666;DHT22;10994;45.486;9.190;2022-11-14T06:51:17;12.50;99.90
21666;DHT22;10994;45.486;9.190;2022-11-14T06:54:01;12.50;99.90
21666;DHT22;10994;45.486;9.190;2022-11-14T06:56:45;12.40;99.90
21666;DHT22;10994;45.486;9.190;2022-11-14T06:59:29;12.50;99.90
21666;DHT22;10994;45.486;9.190;2022-11-14T07:02:14;12.60;99.90
21666;DHT22;10994;45.486;9.190;2022-11-14T07:04:58;12.60;99.90
21666;DHT22;10994;45.486;9.190;2022-11-14T07:07:42;12.60;99.90
21666;DHT22;10994;45.486;9.190;2022-11-14T07:10:26;12.60;99.90
21666;DHT22;10994;45.486;9.190;2022-11-14T07:13:10;12.60;99.90
21666;DHT22;10994;45.486;9.190;2022-11-14T07:15:55;12.60;99.90
21666;DHT22;10994;45.486;9.190;2022-11-14T07:18:39;12.70;99.90
21666;DHT22;10994;45.486;9.190;2022-11-14T07:21:24;12.80;99.90
21666;DHT22;10994;45.486;9.190;2022-11-14T07:24:09;12.90;99.90
21666;DHT22;10994;45.486;9.190;2022-11-14T07:26:53;12.70;99.90
21666;DHT22;10994;45.486;9.190;2022-11-14T07:29:37;12.70;99.90
21666;DHT22;10994;45.486;9.190;2022-11-14T07:32:21;12.80;99.90
21666;DHT22;10994;45.486;9.190;2022-11-14T07:35:05;12.80;99.90
21666;DHT22;10994;45.486;9.190;2022-11-14T07:37:50;12.80;99.90
21666;DHT22;10994;45.486;9.190;2022-11-14T07:40:34;12.80;99.90
21666;DHT22;10994;45.486;9.190;2022-11-14T07:43:19;12.80;99.90
21666;DHT22;10994;45.486;9.190;2022-11-14T07:46:06;12.90;99.90
21666;DHT22;10994;45.486;9.190;2022-11-14T07:48:51;12.70;99.90
21666;DHT22;10994;45.486;9.190;2022-11-14T07:51:35;12.80;99.90
21666;DHT22;10994;45.486;9.190;2022-11-14T07:54:20;12.70;99.90
21666;DHT22;10994;45.486;9.190;2022-11-14T07:57:04;12.80;99.90
21666;DHT22;10994;45.486;9.190;2022-11-14T07:59:48;12.90;99.90
21666;DHT22;10994;45.486;9.190;2022-11-14T08:02:33;12.90;99.90
21666;DHT22;10994;45.486;9.190;2022-11-14T08:05:17;12.80;99.90
21666;DHT22;10994;45.486;9.190;2022-11-14T08:08:02;12.90;99.90
21666;DHT22;10994;45.486;9.190;2022-11-14T08:10:46;12.90;99.90
21666;DHT22;10994;45.486;9.190;2022-11-14T08:13:33;12.70;99.90
21666;DHT22;10994;45.486;9.190;2022-11-14T08:16:17;12.80;99.90
21666;DHT22;10994;45.486;9.190;2022-11-14T08:19:01;13.00;99.90
21666;DHT22;10994;45.486;9.190;2022-11-14T08:21:45;13.10;99.90
21666;DHT22;10994;45.486;9.190;2022-11-14T08:24:30;13.10;99.90
21666;DHT22;10994;45.486;9.190;2022-11-14T08:27:14;13.20;99.90
21666;DHT22;10994;45.486;9.190;2022-11-14T08:29:58;12.90;99.90
21666;DHT22;10994;45.486;9.190;2022-11-14T08:32:42;12.90;99.90
21666;DHT22;10994;45.486;9.190;2022-11-14T08:35:26;13.00;99.90
21666;DHT22;10994;45.486;9.190;2022-11-14T08:38:10;13.00;99.90
21666;DHT22;10994;45.486;9.190;2022-11-14T08:40:57;12.90;99.90
21666;DHT22;10994;45.486;9.190;2022-11-14T08:43:42;12.80;99.90
21666;DHT22;10994;45.486;9.190;2022-11-14T08:46:26;12.90;99.90
21666;DHT22;10994;45.486;9.190;2022-11-14T08:49:10;13.00;99.90
21666;DHT22;10994;45.486;9.190;2022-11-14T08:51:54;13.00;99.90
21666;DHT22;10994;45.486;9.190;2022-11-14T08:54:38;13.20;99.90
21666;DHT22;10994;45.486;9.190;2022-11-14T08:57:22;13.10;99.90
21666;DHT22;10994;45.486;9.190;2022-11-14T09:00:07;13.00;99.90
21666;DHT22;10994;45.486;9.190;2022-11-14T09:02:51;13.00;99.90
21666;DHT22;10994;45.486;9.190;2022-11-14T09:05:36;12.90;99.90
21666;DHT22;10994;45.486;9.190;2022-11-14T09:08:20;13.10;99.90
21666;DHT22;10994;45.486;9.190;2022-11-14T09:11:05;13.20;99.90
21666;DHT22;10994;45.486;9.190;2022-11-14T09:13:49;13.30;99.90
21666;DHT22;10994;45.486;9.190;2022-11-14T09:16:34;13.30;99.90
21666;DHT22;10994;45.486;9.190;2022-11-14T09:19:18;13.10;99.90
21666;DHT22;10994;45.486;9.190;2022-11-14T09:22:02;13.20;99.90
21666;DHT22;10994;45.486;9.190;2022-11-14T09:24:46;13.30;99.90
21666;DHT22;10994;45.486;9.190;2022-11-14T09:27:30;13.00;99.90
21666;DHT22;10994;45.486;9.190;2022-11-14T09:30:14;12.90;99.90
21666;DHT22;10994;45.486;9.190;2022-11-14T09:33:00;12.90;99.90
21666;DHT22;10994;45.486;9.190;2022-11-14T09:35:44;12.90;99.90
21666;DHT22;10994;45.486;9.190;2022-11-14T09:38:28;13.20;99.90
21666;DHT22;10994;45.486;9.190;2022-11-14T09:44:31;13.10;99.90
21666;DHT22;10994;45.486;9.190;2022-11-14T09:47:27;13.00;99.90
21666;DHT22;10994;45.486;9.190;2022-11-14T09:50:21;13.10;99.90
21666;DHT22;10994;45.486;9.190;2022-11-14T09:53:32;13.10;99.90
21666;DHT22;10994;45.486;9.190;2022-11-14T09:56:26;13.20;99.90
21666;DHT22;10994;45.486;9.190;2022-11-14T09:59:12;13.10;99.90
21666;DHT22;10994;45.486;9.190;2022-11-14T10:11:09;13.00;99.90
21666;DHT22;10994;45.486;9.190;2022-11-14T10:26:27;12.80;99.90
21666;DHT22;10994;45.486;9.190;2022-11-14T10:29:33;12.80;99.90
21666;DHT22;10994;45.486;9.190;2022-11-14T10:35:22;13.00;99.90
21666;DHT22;10994;45.486;9.190;2022-11-14T10:38:29;13.10;99.90
21666;DHT22;10994;45.486;9.190;2022-11-14T10:41:15;13.00;99.90
21666;DHT22;10994;45.486;9.190;2022-11-14T10:44:02;12.90;99.90
21666;DHT22;10994;45.486;9.190;2022-11-14T10:46:54;12.80;99.90
21666;DHT22;10994;45.486;9.190;2022-11-14T10:49:40;12.90;99.90
21666;DHT22;10994;45.486;9.190;2022-11-14T10:52:37;13.10;99.90
21666;DHT22;10994;45.486;9.190;2022-11-14T10:55:22;13.30;99.90
21666;DHT22;10994;45.486;9.190;2022-11-14T10:58:12;13.40;99.90
21666;DHT22;10994;45.486;9.190;2022-11-14T11:01:32;13.50;99.90
21666;DHT22;10994;45.486;9.190;2022-11-14T11:04:24;13.50;99.90
21666;DHT22;10994;45.486;9.190;2022-11-14T11:10:22;13.60;99.90
21666;DHT22;10994;45.486;9.190;2022-11-14T11:13:52;13.50;99.90
21666;DHT22;10994;45.486;9.190;2022-11-14T11:16:38;13.60;99.90
21666;DHT22;10994;45.486;9.190;2022-11-14T11:19:24;13.70;99.90
21666;DHT22;10994;45.486;9.190;2022-11-14T11:22:36;13.80;99.90
21666;DHT22;10994;45.486;9.190;2022-11-14T11:25:24;13.90;99.90
21666;DHT22;10994;45.486;9.190;2022-11-14T11:28:17;13.90;99.90
21666;DHT22;10994;45.486;9.190;2022-11-14T11:31:04;14.00;99.90
21666;DHT22;10994;45.486;9.190;2022-11-14T11:33:49;14.00;99.90
21666;DHT22;10994;45.486;9.190;2022-11-14T11:36:42;14.10;99.90
21666;DHT22;10994;45.486;9.190;2022-11-14T11:39:32;13.80;99.90
21666;DHT22;10994;45.486;9.190;2022-11-14T11:42:22;13.60;99.90
21666;DHT22;10994;45.486;9.190;2022-11-14T11:45:14;13.50;99.90
21666;DHT22;10994;45.486;9.190;2022-11-14T11:48:24;13.50;99.90
21666;DHT22;10994;45.486;9.190;2022-11-14T11:51:17;13.50;99.90
21666;DHT22;10994;45.486;9.190;2022-11-14T11:54:09;13.70;99.90
21666;DHT22;10994;45.486;9.190;2022-11-14T11:56:59;13.80;99.90
21666;DHT22;10994;45.486;9.190;2022-11-14T11:59:54;13.80;99.90
21666;DHT22;10994;45.486;9.190;2022-11-14T12:02:45;13.80;99.90
21666;DHT22;10994;45.486;9.190;2022-11-14T12:08:37;14.00;99.90
21666;DHT22;10994;45.486;9.190;2022-11-14T12:11:26;14.00;99.90
21666;DHT22;10994;45.486;9.190;2022-11-14T12:14:29;14.00;99.90
21666;DHT22;10994;45.486;9.190;2022-11-14T12:17:37;14.00;99.90
21666;DHT22;10994;45.486;9.190;2022-11-14T12:20:42;14.10;99.90
21666;DHT22;10994;45.486;9.190;2022-11-14T12:30:16;14.20;99.90
21666;DHT22;10994;45.486;9.190;2022-11-14T12:33:15;14.20;99.90
21666;DHT22;10994;45.486;9.190;2022-11-14T12:36:06;14.20;99.90
21666;DHT22;10994;45.486;9.190;2022-11-14T12:38:53;14.10;99.90
21666;DHT22;10994;45.486;9.190;2022-11-14T12:41:38;14.20;99.90
21666;DHT22;10994;45.486;9.190;2022-11-14T12:47:18;14.40;99.90
21666;DHT22;10994;45.486;9.190;2022-11-14T12:50:04;14.50;99.90
21666;DHT22;10994;45.486;9.190;2022-11-14T12:59:19;14.50;99.90
21666;DHT22;10994;45.486;9.190;2022-11-14T13:08:14;14.60;99.90
21666;DHT22;10994;45.486;9.190;2022-11-14T13:11:39;14.50;99.90
21666;DHT22;10994;45.486;9.190;2022-11-14T13:14:53;14.50;99.90
21666;DHT22;10994;45.486;9.190;2022-11-14T13:24:19;14.70;99.90
21666;DHT22;10994;45.486;9.190;2022-11-14T13:27:24;14.70;99.90
21666;DHT22;10994;45.486;9.190;2022-11-14T13:30:09;14.70;99.90
21666;DHT22;10994;45.486;9.190;2022-11-14T13:32:53;14.60;99.90
21666;DHT22;10994;45.486;9.190;2022-11-14T13:35:47;14.60;99.90
21666;DHT22;10994;45.486;9.190;2022-11-14T13:45:22;14.40;99.90
21666;DHT22;10994;45.486;9.190;2022-11-14T13:51:09;14.50;99.90
21666;DHT22;10994;45.486;9.190;2022-11-14T13:53:55;14.40;99.90
21666;DHT22;10994;45.486;9.190;2022-11-14T13:56:51;14.30;99.90
21666;DHT22;10994;45.486;9.190;2022-11-14T14:00:10;14.40;99.90
21666;DHT22;10994;45.486;9.190;2022-11-14T14:03:14;14.50;99.90
21666;DHT22;10994;45.486;9.190;2022-11-14T14:06:31;14.40;99.90
21666;DHT22;10994;45.486;9.190;2022-11-14T14:13:19;14.20;99.90
21666;DHT22;10994;45.486;9.190;2022-11-14T14:16:39;14.20;99.90
21666;DHT22;10994;45.486;9.190;2022-11-14T14:19:50;14.20;99.90
21666;DHT22;10994;45.486;9.190;2022-11-14T14:31:38;14.20;99.90
21666;DHT22;10994;45.486;9.190;2022-11-14T14:34:28;14.40;99.90
21666;DHT22;10994;45.486;9.190;2022-11-14T14:37:24;14.30;99.90
21666;DHT22;10994;45.486;9.190;2022-11-14T14:40:23;14.20;99.90
21666;DHT22;10994;45.486;9.190;2022-11-14T14:43:23;14.00;99.90
21666;DHT22;10994;45.486;9.190;2022-11-14T14:46:08;13.90;99.90
21666;DHT22;10994;45.486;9.190;2022-11-14T14:48:52;13.80;99.90
21666;DHT22;10994;45.486;9.190;2022-11-14T14:51:37;13.90;99.90
21666;DHT22;10994;45.486;9.190;2022-11-14T14:54:24;14.00;99.90
21666;DHT22;10994;45.486;9.190;2022-11-14T14:57:16;14.00;99.90
21666;DHT22;10994;45.486;9.190;2022-11-14T15:00:22;14.10;99.90
21666;DHT22;10994;45.486;9.190;2022-11-14T15:03:09;14.20;99.90
21666;DHT22;10994;45.486;9.190;2022-11-14T15:05:58;14.10;99.90
21666;DHT22;10994;45.486;9.190;2022-11-14T15:08:44;14.00;99.90
21666;DHT22;10994;45.486;9.190;2022-11-14T15:11:29;14.10;99.90
21666;DHT22;10994;45.486;9.190;2022-11-14T15:14:16;14.10;99.90
21666;DHT22;10994;45.486;9.190;2022-11-14T15:17:03;14.00;99.90
21666;DHT22;10994;45.486;9.190;2022-11-14T15:19:51;14.00;99.90
21666;DHT22;10994;45.486;9.190;2022-11-14T15:22:35;13.80;99.90
21666;DHT22;10994;45.486;9.190;2022-11-14T15:25:21;13.80;99.90
21666;DHT22;10994;45.486;9.190;2022-11-14T15:28:18;13.90;99.90
21666;DHT22;10994;45.486;9.190;2022-11-14T15:31:03;14.00;99.90
21666;DHT22;10994;45.486;9.190;2022-11-14T15:34:33;14.00;99.90
21666;DHT22;10994;45.486;9.190;2022-11-14T15:37:20;14.00;99.90
21666;DHT22;10994;45.486;9.190;2022-11-14T15:40:19;13.90;99.90
21666;DHT22;10994;45.486;9.190;2022-11-14T15:43:36;13.80;99.90
21666;DHT22;10994;45.486;9.190;2022-11-14T15:49:20;13.60;99.90
21666;DHT22;10994;45.486;9.190;2022-11-14T15:52:27;13.60;99.90
21666;DHT22;10994;45.486;9.190;2022-11-14T15:55:18;13.70;99.90
21666;DHT22;10994;45.486;9.190;2022-11-14T15:58:02;13.70;99.90
21666;DHT22;10994;45.486;9.190;2022-11-14T16:00:51;13.70;99.90
21666;DHT22;10994;45.486;9.190;2022-11-14T16:03:36;13.60;99.90
21666;DHT22;10994;45.486;9.190;2022-11-14T16:06:21;13.50;99.90
21666;DHT22;10994;45.486;9.190;2022-11-14T16:09:05;13.50;99.90
21666;DHT22;10994;45.486;9.190;2022-11-14T16:11:49;13.50;99.90
21666;DHT22;10994;45.486;9.190;2022-11-14T16:14:34;13.40;99.90
21666;DHT22;10994;45.486;9.190;2022-11-14T16:17:19;13.40;99.90
21666;DHT22;10994;45.486;9.190;2022-11-14T16:20:05;13.40;99.90
21666;DHT22;10994;45.486;9.190;2022-11-14T16:22:50;13.50;99.90
21666;DHT22;10994;45.486;9.190;2022-11-14T16:25:36;13.50;99.90
21666;DHT22;10994;45.486;9.190;2022-11-14T16:28:20;13.40;99.90
21666;DHT22;10994;45.486;9.190;2022-11-14T16:31:10;13.40;99.90
21666;DHT22;10994;45.486;9.190;2022-11-14T16:33:55;13.30;99.90
21666;DHT22;10994;45.486;9.190;2022-11-14T16:36:40;13.40;99.90
21666;DHT22;10994;45.486;9.190;2022-11-14T16:39:25;13.40;99.90
21666;DHT22;10994;45.486;9.190;2022-11-14T16:42:09;13.40;99.90
21666;DHT22;10994;45.486;9.190;2022-11-14T16:44:59;13.40;99.90
21666;DHT22;10994;45.486;9.190;2022-11-14T16:47:44;13.40;99.90
21666;DHT22;10994;45.486;9.190;2022-11-14T16:50:29;13.30;99.90
21666;DHT22;10994;45.486;9.190;2022-11-14T16:53:13;13.20;99.90
21666;DHT22;10994;45.486;9.190;2022-11-14T16:55:57;13.20;99.90
21666;DHT22;10994;45.486;9.190;2022-11-14T16:58:41;13.20;99.90
21666;DHT22;10994;45.486;9.190;2022-11-14T17:01:25;13.20;99.90
21666;DHT22;10994;45.486;9.190;2022-11-14T17:04:09;13.10;99.90
21666;DHT22;10994;45.486;9.190;2022-11-14T17:06:53;13.10;99.90
21666;DHT22;10994;45.486;9.190;2022-11-14T17:09:37;13.00;99.90
21666;DHT22;10994;45.486;9.190;2022-11-14T17:12:22;12.80;99.90
21666;DHT22;10994;45.486;9.190;2022-11-14T17:15:06;12.70;99.90
21666;DHT22;10994;45.486;9.190;2022-11-14T17:17:50;12.60;99.90
21666;DHT22;10994;45.486;9.190;2022-11-14T17:20:38;12.60;99.90
21666;DHT22;10994;45.486;9.190;2022-11-14T17:23:22;12.70;99.90
21666;DHT22;10994;45.486;9.190;2022-11-14T17:26:09;12.70;99.90
21666;DHT22;10994;45.486;9.190;2022-11-14T17:28:54;12.70;99.90
21666;DHT22;10994;45.486;9.190;2022-11-14T17:31:39;12.70;99.90
21666;DHT22;10994;45.486;9.190;2022-11-14T17:34:23;12.80;99.90
21666;DHT22;10994;45.486;9.190;2022-11-14T17:37:07;12.80;99.90
21666;DHT22;10994;45.486;9.190;2022-11-14T17:39:51;12.80;99.90
21666;DHT22;10994;45.486;9.190;2022-11-14T17:42:35;12.80;99.90
21666;DHT22;10994;45.486;9.190;2022-11-14T17:45:19;12.80;99.90
21666;DHT22;10994;45.486;9.190;2022-11-14T17:48:04;12.60;99.90
21666;DHT22;10994;45.486;9.190;2022-11-14T17:50:48;12.60;99.90
21666;DHT22;10994;45.486;9.190;2022-11-14T17:53:33;12.70;99.90
21666;DHT22;10994;45.486;9.190;2022-11-14T17:56:21;12.60;99.90
21666;DHT22;10994;45.486;9.190;2022-11-14T17:59:06;12.60;99.90
21666;DHT22;10994;45.486;9.190;2022-11-14T18:01:51;12.60;99.90
21666;DHT22;10994;45.486;9.190;2022-11-14T18:04:37;12.60;99.90
21666;DHT22;10994;45.486;9.190;2022-11-14T18:07:21;12.50;99.90
21666;DHT22;10994;45.486;9.190;2022-11-14T18:10:06;12.40;99.90
21666;DHT22;10994;45.486;9.190;2022-11-14T18:12:50;12.50;99.90
21666;DHT22;10994;45.486;9.190;2022-11-14T18:15:36;12.40;99.90
21666;DHT22;10994;45.486;9.190;2022-11-14T18:18:21;12.40;99.90
21666;DHT22;10994;45.486;9.190;2022-11-14T18:21:12;12.40;99.90
21666;DHT22;10994;45.486;9.190;2022-11-14T18:23:58;12.40;99.90
21666;DHT22;10994;45.486;9.190;2022-11-14T18:26:43;12.50;99.90
21666;DHT22;10994;45.486;9.190;2022-11-14T18:29:27;12.60;99.90
21666;DHT22;10994;45.486;9.190;2022-11-14T18:32:14;12.60;99.90
21666;DHT22;10994;45.486;9.190;2022-11-14T18:34:58;12.30;99.90
21666;DHT22;10994;45.486;9.190;2022-11-14T18:37:43;12.20;99.90
21666;DHT22;10994;45.486;9.190;2022-11-14T18:40:27;12.20;99.90
21666;DHT22;10994;45.486;9.190;2022-11-14T18:43:11;12.10;99.90
21666;DHT22;10994;45.486;9.190;2022-11-14T18:45:55;12.00;99.90
21666;DHT22;10994;45.486;9.190;2022-11-14T18:48:40;12.00;99.90
21666;DHT22;10994;45.486;9.190;2022-11-14T18:51:27;12.20;99.90
21666;DHT22;10994;45.486;9.190;2022-11-14T18:54:14;12.30;99.90
21666;DHT22;10994;45.486;9.190;2022-11-14T18:56:59;12.40;99.90
21666;DHT22;10994;45.486;9.190;2022-11-14T18:59:43;12.40;99.90
21666;DHT22;10994;45.486;9.190;2022-11-14T19:02:27;12.50;99.90
21666;DHT22;10994;45.486;9.190;2022-11-14T19:05:11;12.50;99.90